sensor_id;sensor_type;location;lat;lon;timestamp;P1;durP1;ratioP1;P2;durP2;ratioP2
61915;SDS011;47868;51.326;6.550;2023-12-04T00:01:18;21.90;;;15.87;;
61915;SDS011;47868;51.326;6.550;2023-12-04T00:03:44;21.03;;;15.23;;
61915;SDS011;47868;51.326;6.550;2023-12-04T00:06:11;23.07;;;16.07;;
61915;SDS011;47868;51.326;6.550;2023-12-04T00:08:37;21.08;;;14.13;;
61915;SDS011;47868;51.326;6.550;2023-12-04T00:11:04;21.53;;;14.30;;
61915;SDS011;47868;51.326;6.550;2023-12-04T00:13:30;21.03;;;14.87;;
61915;SDS011;47868;51.326;6.550;2023-12-04T00:15:56;21.90;;;14.60;;
61915;SDS011;47868;51.326;6.550;2023-12-04T00:18:22;20.93;;;14.37;;
61915;SDS011;47868;51.326;6.550;2023-12-04T00:20:48;22.60;;;15.23;;
61915;SDS011;47868;51.326;6.550;2023-12-04T00:23:14;22.17;;;14.93;;
61915;SDS011;47868;51.326;6.550;2023-12-04T00:25:40;25.80;;;14.20;;
61915;SDS011;47868;51.326;6.550;2023-12-04T00:28:06;20.60;;;14.53;;
61915;SDS011;47868;51.326;6.550;2023-12-04T00:30:32;21.00;;;14.17;;
61915;SDS011;47868;51.326;6.550;2023-12-04T00:32:58;19.63;;;13.57;;
61915;SDS011;47868;51.326;6.550;2023-12-04T00:35:24;19.13;;;13.93;;
61915;SDS011;47868;51.326;6.550;2023-12-04T00:37:50;21.57;;;13.67;;
61915;SDS011;47868;51.326;6.550;2023-12-04T00:40:16;24.15;;;14.38;;
61915;SDS011;47868;51.326;6.550;2023-12-04T00:42:42;20.53;;;14.63;;
61915;SDS011;47868;51.326;6.550;2023-12-04T00:45:08;20.03;;;13.57;;
61915;SDS011;47868;51.326;6.550;2023-12-04T00:47:34;19.50;;;14.00;;
61915;SDS011;47868;51.326;6.550;2023-12-04T00:50:00;22.97;;;14.77;;
61915;SDS011;47868;51.326;6.550;2023-12-04T00:52:26;21.23;;;13.73;;
61915;SDS011;47868;51.326;6.550;2023-12-04T00:54:52;18.20;;;13.03;;
61915;SDS011;47868;51.326;6.550;2023-12-04T00:57:18;20.10;;;13.73;;
61915;SDS011;47868;51.326;6.550;2023-12-04T00:59:44;18.73;;;13.30;;
61915;SDS011;47868;51.326;6.550;2023-12-04T01:02:10;20.00;;;13.80;;
61915;SDS011;47868;51.326;6.550;2023-12-04T01:04:39;18.58;;;13.00;;
61915;SDS011;47868;51.326;6.550;2023-12-04T01:07:06;17.60;;;13.07;;
61915;SDS011;47868;51.326;6.550;2023-12-04T01:09:34;18.27;;;12.48;;
61915;SDS011;47868;51.326;6.550;2023-12-04T01:12:00;18.73;;;13.17;;
61915;SDS011;47868;51.326;6.550;2023-12-04T01:14:26;18.52;;;12.93;;
61915;SDS011;47868;51.326;6.550;2023-12-04T01:16:52;19.53;;;13.40;;
61915;SDS011;47868;51.326;6.550;2023-12-04T01:19:18;18.48;;;13.10;;
61915;SDS011;47868;51.326;6.550;2023-12-04T01:21:44;16.52;;;12.23;;
61915;SDS011;47868;51.326;6.550;2023-12-04T01:24:10;20.50;;;12.98;;
61915;SDS011;47868;51.326;6.550;2023-12-04T01:26:36;16.33;;;11.97;;
61915;SDS011;47868;51.326;6.550;2023-12-04T01:29:02;17.40;;;12.87;;
61915;SDS011;47868;51.326;6.550;2023-12-04T01:31:28;18.23;;;13.07;;
61915;SDS011;47868;51.326;6.550;2023-12-04T01:33:54;32.50;;;13.47;;
61915;SDS011;47868;51.326;6.550;2023-12-04T01:36:20;17.40;;;12.40;;
61915;SDS011;47868;51.326;6.550;2023-12-04T01:38:46;18.10;;;13.60;;
61915;SDS011;47868;51.326;6.550;2023-12-04T01:41:12;18.87;;;13.23;;
61915;SDS011;47868;51.326;6.550;2023-12-04T01:43:38;16.83;;;12.57;;
61915;SDS011;47868;51.326;6.550;2023-12-04T01:46:04;16.97;;;13.07;;
61915;SDS011;47868;51.326;6.550;2023-12-04T01:48:31;17.37;;;12.50;;
61915;SDS011;47868;51.326;6.550;2023-12-04T01:50:57;15.50;;;12.07;;
61915;SDS011;47868;51.326;6.550;2023-12-04T01:53:23;18.35;;;13.02;;
61915;SDS011;47868;51.326;6.550;2023-12-04T01:55:49;19.50;;;13.20;;
61915;SDS011;47868;51.326;6.550;2023-12-04T01:58:16;18.37;;;12.63;;
61915;SDS011;47868;51.326;6.550;2023-12-04T02:00:42;18.93;;;12.70;;
61915;SDS011;47868;51.326;6.550;2023-12-04T02:03:08;18.50;;;12.30;;
61915;SDS011;47868;51.326;6.550;2023-12-04T02:05:35;18.83;;;12.83;;
61915;SDS011;47868;51.326;6.550;2023-12-04T02:08:02;15.15;;;11.57;;
61915;SDS011;47868;51.326;6.550;2023-12-04T02:10:29;18.48;;;12.48;;
61915;SDS011;47868;51.326;6.550;2023-12-04T02:12:55;17.17;;;12.67;;
61915;SDS011;47868;51.326;6.550;2023-12-04T02:15:21;17.63;;;12.47;;
61915;SDS011;47868;51.326;6.550;2023-12-04T02:17:47;15.80;;;11.47;;
61915;SDS011;47868;51.326;6.550;2023-12-04T02:20:13;18.80;;;13.03;;
61915;SDS011;47868;51.326;6.550;2023-12-04T02:22:39;20.80;;;12.63;;
61915;SDS011;47868;51.326;6.550;2023-12-04T02:25:06;17.13;;;12.83;;
61915;SDS011;47868;51.326;6.550;2023-12-04T02:27:38;19.13;;;12.53;;
61915;SDS011;47868;51.326;6.550;2023-12-04T02:30:05;17.57;;;12.47;;
61915;SDS011;47868;51.326;6.550;2023-12-04T02:32:33;16.47;;;12.23;;
61915;SDS011;47868;51.326;6.550;2023-12-04T02:35:02;17.53;;;11.70;;
61915;SDS011;47868;51.326;6.550;2023-12-04T02:37:29;14.55;;;11.50;;
61915;SDS011;47868;51.326;6.550;2023-12-04T02:39:56;18.23;;;11.15;;
61915;SDS011;47868;51.326;6.550;2023-12-04T02:42:22;16.30;;;11.70;;
61915;SDS011;47868;51.326;6.550;2023-12-04T02:44:50;16.90;;;11.30;;
61915;SDS011;47868;51.326;6.550;2023-12-04T02:47:16;16.88;;;11.68;;
61915;SDS011;47868;51.326;6.550;2023-12-04T02:49:42;14.63;;;10.87;;
61915;SDS011;47868;51.326;6.550;2023-12-04T02:52:08;16.07;;;11.53;;
61915;SDS011;47868;51.326;6.550;2023-12-04T02:54:34;17.20;;;11.87;;
61915;SDS011;47868;51.326;6.550;2023-12-04T02:57:00;15.40;;;11.70;;
61915;SDS011;47868;51.326;6.550;2023-12-04T02:59:26;16.10;;;11.68;;
61915;SDS011;47868;51.326;6.550;2023-12-04T03:01:52;14.85;;;10.73;;
61915;SDS011;47868;51.326;6.550;2023-12-04T03:04:21;17.03;;;11.90;;
61915;SDS011;47868;51.326;6.550;2023-12-04T03:06:47;14.95;;;11.25;;
61915;SDS011;47868;51.326;6.550;2023-12-04T03:09:13;17.20;;;11.27;;
61915;SDS011;47868;51.326;6.550;2023-12-04T03:11:39;16.35;;;11.70;;
61915;SDS011;47868;51.326;6.550;2023-12-04T03:14:05;13.55;;;11.10;;
61915;SDS011;47868;51.326;6.550;2023-12-04T03:16:32;14.95;;;11.15;;
61915;SDS011;47868;51.326;6.550;2023-12-04T03:18:58;14.63;;;11.23;;
61915;SDS011;47868;51.326;6.550;2023-12-04T03:21:24;17.67;;;10.87;;
61915;SDS011;47868;51.326;6.550;2023-12-04T03:23:50;17.67;;;10.70;;
61915;SDS011;47868;51.326;6.550;2023-12-04T03:26:16;16.57;;;11.80;;
61915;SDS011;47868;51.326;6.550;2023-12-04T03:28:42;13.70;;;10.50;;
61915;SDS011;47868;51.326;6.550;2023-12-04T03:31:08;15.25;;;11.63;;
61915;SDS011;47868;51.326;6.550;2023-12-04T03:33:34;15.80;;;11.70;;
61915;SDS011;47868;51.326;6.550;2023-12-04T03:36:00;14.00;;;11.27;;
61915;SDS011;47868;51.326;6.550;2023-12-04T03:38:26;17.23;;;10.67;;
61915;SDS011;47868;51.326;6.550;2023-12-04T03:40:52;16.60;;;10.47;;
61915;SDS011;47868;51.326;6.550;2023-12-04T03:43:18;17.20;;;11.68;;
61915;SDS011;47868;51.326;6.550;2023-12-04T03:45:44;14.83;;;10.60;;
61915;SDS011;47868;51.326;6.550;2023-12-04T03:48:10;13.30;;;10.80;;
61915;SDS011;47868;51.326;6.550;2023-12-04T03:50:36;15.37;;;11.03;;
61915;SDS011;47868;51.326;6.550;2023-12-04T03:53:02;13.27;;;9.87;;
61915;SDS011;47868;51.326;6.550;2023-12-04T03:55:28;15.10;;;11.20;;
61915;SDS011;47868;51.326;6.550;2023-12-04T03:57:54;16.50;;;12.00;;
61915;SDS011;47868;51.326;6.550;2023-12-04T04:00:20;14.23;;;10.60;;
61915;SDS011;47868;51.326;6.550;2023-12-04T04:02:47;14.50;;;10.48;;
61915;SDS011;47868;51.326;6.550;2023-12-04T04:05:14;15.20;;;10.63;;
61915;SDS011;47868;51.326;6.550;2023-12-04T04:07:40;16.10;;;10.77;;
61915;SDS011;47868;51.326;6.550;2023-12-04T04:10:06;14.95;;;10.77;;
61915;SDS011;47868;51.326;6.550;2023-12-04T04:12:32;15.00;;;10.07;;
61915;SDS011;47868;51.326;6.550;2023-12-04T04:14:59;13.80;;;10.07;;
61915;SDS011;47868;51.326;6.550;2023-12-04T04:17:25;14.73;;;10.90;;
61915;SDS011;47868;51.326;6.550;2023-12-04T04:19:54;16.25;;;11.32;;
61915;SDS011;47868;51.326;6.550;2023-12-04T04:22:20;15.30;;;10.73;;
61915;SDS011;47868;51.326;6.550;2023-12-04T04:24:46;12.65;;;9.05;;
61915;SDS011;47868;51.326;6.550;2023-12-04T04:27:12;14.27;;;10.20;;
61915;SDS011;47868;51.326;6.550;2023-12-04T04:29:38;13.73;;;10.10;;
61915;SDS011;47868;51.326;6.550;2023-12-04T04:32:04;14.70;;;11.53;;
61915;SDS011;47868;51.326;6.550;2023-12-04T04:34:31;14.30;;;10.10;;
61915;SDS011;47868;51.326;6.550;2023-12-04T04:36:57;12.47;;;9.87;;
61915;SDS011;47868;51.326;6.550;2023-12-04T04:39:23;12.32;;;8.88;;
61915;SDS011;47868;51.326;6.550;2023-12-04T04:41:49;13.63;;;10.43;;
61915;SDS011;47868;51.326;6.550;2023-12-04T04:44:15;12.03;;;9.53;;
61915;SDS011;47868;51.326;6.550;2023-12-04T04:46:41;13.47;;;10.10;;
61915;SDS011;47868;51.326;6.550;2023-12-04T04:49:07;12.27;;;9.23;;
61915;SDS011;47868;51.326;6.550;2023-12-04T04:51:33;12.55;;;9.30;;
61915;SDS011;47868;51.326;6.550;2023-12-04T04:54:00;12.60;;;10.13;;
61915;SDS011;47868;51.326;6.550;2023-12-04T04:56:26;14.30;;;10.43;;
61915;SDS011;47868;51.326;6.550;2023-12-04T04:58:52;14.00;;;10.13;;
61915;SDS011;47868;51.326;6.550;2023-12-04T05:01:18;15.80;;;10.95;;
61915;SDS011;47868;51.326;6.550;2023-12-04T05:03:44;13.10;;;9.57;;
61915;SDS011;47868;51.326;6.550;2023-12-04T05:06:10;13.17;;;10.40;;
61915;SDS011;47868;51.326;6.550;2023-12-04T05:08:36;12.83;;;9.87;;
61915;SDS011;47868;51.326;6.550;2023-12-04T05:11:02;14.13;;;10.47;;
61915;SDS011;47868;51.326;6.550;2023-12-04T05:13:28;15.27;;;10.77;;
61915;SDS011;47868;51.326;6.550;2023-12-04T05:15:54;17.17;;;10.07;;
61915;SDS011;47868;51.326;6.550;2023-12-04T05:18:20;14.20;;;10.18;;
61915;SDS011;47868;51.326;6.550;2023-12-04T05:20:45;13.50;;;9.67;;
61915;SDS011;47868;51.326;6.550;2023-12-04T05:23:11;15.13;;;10.27;;
61915;SDS011;47868;51.326;6.550;2023-12-04T05:25:37;13.97;;;10.07;;
61915;SDS011;47868;51.326;6.550;2023-12-04T05:28:04;15.87;;;10.67;;
61915;SDS011;47868;51.326;6.550;2023-12-04T05:30:30;15.87;;;9.97;;
61915;SDS011;47868;51.326;6.550;2023-12-04T05:32:56;14.77;;;10.20;;
61915;SDS011;47868;51.326;6.550;2023-12-04T05:35:22;15.13;;;10.47;;
61915;SDS011;47868;51.326;6.550;2023-12-04T05:37:48;15.73;;;11.10;;
61915;SDS011;47868;51.326;6.550;2023-12-04T05:40:14;13.73;;;10.38;;
61915;SDS011;47868;51.326;6.550;2023-12-04T05:42:40;15.37;;;11.13;;
61915;SDS011;47868;51.326;6.550;2023-12-04T05:45:06;13.55;;;10.18;;
61915;SDS011;47868;51.326;6.550;2023-12-04T05:47:33;15.57;;;11.50;;
61915;SDS011;47868;51.326;6.550;2023-12-04T05:50:00;17.20;;;11.30;;
61915;SDS011;47868;51.326;6.550;2023-12-04T05:52:26;14.90;;;11.43;;
61915;SDS011;47868;51.326;6.550;2023-12-04T05:54:52;15.73;;;10.40;;
61915;SDS011;47868;51.326;6.550;2023-12-04T05:57:18;15.60;;;10.77;;
61915;SDS011;47868;51.326;6.550;2023-12-04T05:59:44;15.70;;;11.13;;
61915;SDS011;47868;51.326;6.550;2023-12-04T06:02:10;15.13;;;11.10;;
61915;SDS011;47868;51.326;6.550;2023-12-04T06:04:37;17.40;;;12.13;;
61915;SDS011;47868;51.326;6.550;2023-12-04T06:07:03;16.48;;;11.63;;
61915;SDS011;47868;51.326;6.550;2023-12-04T06:09:29;16.08;;;11.15;;
61915;SDS011;47868;51.326;6.550;2023-12-04T06:11:55;15.93;;;11.73;;
61915;SDS011;47868;51.326;6.550;2023-12-04T06:14:21;13.98;;;10.70;;
61915;SDS011;47868;51.326;6.550;2023-12-04T06:16:47;15.73;;;11.50;;
61915;SDS011;47868;51.326;6.550;2023-12-04T06:19:13;18.15;;;13.05;;
61915;SDS011;47868;51.326;6.550;2023-12-04T06:21:39;15.60;;;11.50;;
61915;SDS011;47868;51.326;6.550;2023-12-04T06:24:05;17.97;;;11.87;;
61915;SDS011;47868;51.326;6.550;2023-12-04T06:26:33;15.20;;;10.95;;
61915;SDS011;47868;51.326;6.550;2023-12-04T06:29:01;13.93;;;10.82;;
61915;SDS011;47868;51.326;6.550;2023-12-04T06:31:27;16.53;;;11.27;;
61915;SDS011;47868;51.326;6.550;2023-12-04T06:33:54;15.18;;;11.30;;
61915;SDS011;47868;51.326;6.550;2023-12-04T06:36:20;17.10;;;12.18;;
61915;SDS011;47868;51.326;6.550;2023-12-04T06:38:47;14.63;;;11.23;;
61915;SDS011;47868;51.326;6.550;2023-12-04T06:41:14;15.40;;;12.23;;
61915;SDS011;47868;51.326;6.550;2023-12-04T06:43:41;17.33;;;13.02;;
61915;SDS011;47868;51.326;6.550;2023-12-04T06:46:08;17.85;;;12.70;;
61915;SDS011;47868;51.326;6.550;2023-12-04T06:48:34;18.95;;;12.05;;
61915;SDS011;47868;51.326;6.550;2023-12-04T06:51:00;16.43;;;12.70;;
61915;SDS011;47868;51.326;6.550;2023-12-04T06:53:26;16.03;;;11.87;;
61915;SDS011;47868;51.326;6.550;2023-12-04T06:55:52;17.88;;;13.05;;
61915;SDS011;47868;51.326;6.550;2023-12-04T06:58:18;18.90;;;12.15;;
61915;SDS011;47868;51.326;6.550;2023-12-04T07:00:44;16.30;;;12.18;;
61915;SDS011;47868;51.326;6.550;2023-12-04T07:03:10;17.08;;;11.77;;
61915;SDS011;47868;51.326;6.550;2023-12-04T07:05:36;16.33;;;11.90;;
61915;SDS011;47868;51.326;6.550;2023-12-04T07:08:02;15.25;;;11.52;;
61915;SDS011;47868;51.326;6.550;2023-12-04T07:10:28;15.40;;;12.13;;
61915;SDS011;47868;51.326;6.550;2023-12-04T07:12:54;16.27;;;12.07;;
61915;SDS011;47868;51.326;6.550;2023-12-04T07:15:20;19.17;;;11.77;;
61915;SDS011;47868;51.326;6.550;2023-12-04T07:17:46;14.80;;;10.80;;
61915;SDS011;47868;51.326;6.550;2023-12-04T07:20:12;15.57;;;11.80;;
61915;SDS011;47868;51.326;6.550;2023-12-04T07:22:38;15.63;;;11.63;;
61915;SDS011;47868;51.326;6.550;2023-12-04T07:25:05;16.03;;;11.80;;
61915;SDS011;47868;51.326;6.550;2023-12-04T07:27:34;15.97;;;11.83;;
61915;SDS011;47868;51.326;6.550;2023-12-04T07:30:00;17.17;;;12.90;;
61915;SDS011;47868;51.326;6.550;2023-12-04T07:32:27;16.45;;;11.60;;
61915;SDS011;47868;51.326;6.550;2023-12-04T07:34:53;18.13;;;12.73;;
61915;SDS011;47868;51.326;6.550;2023-12-04T07:37:19;19.35;;;12.45;;
61915;SDS011;47868;51.326;6.550;2023-12-04T07:39:45;18.40;;;13.17;;
61915;SDS011;47868;51.326;6.550;2023-12-04T07:42:11;17.40;;;11.93;;
61915;SDS011;47868;51.326;6.550;2023-12-04T07:44:37;18.97;;;13.37;;
61915;SDS011;47868;51.326;6.550;2023-12-04T07:47:03;18.23;;;12.85;;
61915;SDS011;47868;51.326;6.550;2023-12-04T07:49:29;17.23;;;12.73;;
61915;SDS011;47868;51.326;6.550;2023-12-04T07:51:55;21.20;;;13.32;;
61915;SDS011;47868;51.326;6.550;2023-12-04T07:54:21;17.10;;;12.65;;
61915;SDS011;47868;51.326;6.550;2023-12-04T07:56:51;14.82;;;11.65;;
61915;SDS011;47868;51.326;6.550;2023-12-04T07:59:18;17.75;;;12.52;;
61915;SDS011;47868;51.326;6.550;2023-12-04T08:01:44;17.13;;;12.52;;
61915;SDS011;47868;51.326;6.550;2023-12-04T08:04:10;17.63;;;13.03;;
61915;SDS011;47868;51.326;6.550;2023-12-04T08:06:36;18.42;;;12.70;;
61915;SDS011;47868;51.326;6.550;2023-12-04T08:09:02;17.25;;;12.13;;
61915;SDS011;47868;51.326;6.550;2023-12-04T08:11:30;15.55;;;11.90;;
61915;SDS011;47868;51.326;6.550;2023-12-04T08:13:57;19.67;;;12.13;;
61915;SDS011;47868;51.326;6.550;2023-12-04T08:16:23;14.38;;;11.40;;
61915;SDS011;47868;51.326;6.550;2023-12-04T08:18:48;17.77;;;12.43;;
61915;SDS011;47868;51.326;6.550;2023-12-04T08:21:14;15.00;;;11.48;;
61915;SDS011;47868;51.326;6.550;2023-12-04T08:23:40;16.25;;;11.13;;
61915;SDS011;47868;51.326;6.550;2023-12-04T08:26:06;14.30;;;11.05;;
61915;SDS011;47868;51.326;6.550;2023-12-04T08:28:33;15.90;;;11.98;;
61915;SDS011;47868;51.326;6.550;2023-12-04T08:31:00;14.65;;;11.43;;
61915;SDS011;47868;51.326;6.550;2023-12-04T08:33:26;14.88;;;11.20;;
61915;SDS011;47868;51.326;6.550;2023-12-04T08:35:52;15.73;;;11.95;;
61915;SDS011;47868;51.326;6.550;2023-12-04T08:38:18;18.00;;;12.05;;
61915;SDS011;47868;51.326;6.550;2023-12-04T08:40:44;17.60;;;11.70;;
61915;SDS011;47868;51.326;6.550;2023-12-04T08:43:10;14.77;;;10.85;;
61915;SDS011;47868;51.326;6.550;2023-12-04T08:45:36;14.52;;;10.55;;
61915;SDS011;47868;51.326;6.550;2023-12-04T08:48:02;12.93;;;9.55;;
61915;SDS011;47868;51.326;6.550;2023-12-04T08:50:28;14.07;;;10.13;;
61915;SDS011;47868;51.326;6.550;2023-12-04T08:52:54;11.82;;;9.18;;
61915;SDS011;47868;51.326;6.550;2023-12-04T08:55:20;13.60;;;9.98;;
61915;SDS011;47868;51.326;6.550;2023-12-04T08:57:46;12.52;;;9.63;;
61915;SDS011;47868;51.326;6.550;2023-12-04T09:00:13;14.60;;;10.70;;
61915;SDS011;47868;51.326;6.550;2023-12-04T09:02:39;14.57;;;10.00;;
61915;SDS011;47868;51.326;6.550;2023-12-04T09:05:05;12.73;;;9.30;;
61915;SDS011;47868;51.326;6.550;2023-12-04T09:07:31;11.90;;;8.65;;
61915;SDS011;47868;51.326;6.550;2023-12-04T09:09:57;12.00;;;9.18;;
61915;SDS011;47868;51.326;6.550;2023-12-04T09:12:24;15.35;;;9.50;;
61915;SDS011;47868;51.326;6.550;2023-12-04T09:14:51;12.35;;;8.95;;
61915;SDS011;47868;51.326;6.550;2023-12-04T09:17:17;12.13;;;9.30;;
61915;SDS011;47868;51.326;6.550;2023-12-04T09:19:43;12.57;;;9.05;;
61915;SDS011;47868;51.326;6.550;2023-12-04T09:22:09;13.20;;;9.05;;
61915;SDS011;47868;51.326;6.550;2023-12-04T09:24:35;14.50;;;10.00;;
61915;SDS011;47868;51.326;6.550;2023-12-04T09:27:01;13.38;;;10.23;;
61915;SDS011;47868;51.326;6.550;2023-12-04T09:29:27;12.07;;;9.32;;
61915;SDS011;47868;51.326;6.550;2023-12-04T09:31:53;13.70;;;9.50;;
61915;SDS011;47868;51.326;6.550;2023-12-04T09:34:19;11.73;;;8.65;;
61915;SDS011;47868;51.326;6.550;2023-12-04T09:36:46;11.10;;;8.50;;
61915;SDS011;47868;51.326;6.550;2023-12-04T09:39:13;11.18;;;8.82;;
61915;SDS011;47868;51.326;6.550;2023-12-04T09:41:40;12.52;;;9.55;;
61915;SDS011;47868;51.326;6.550;2023-12-04T09:44:08;10.85;;;8.73;;
61915;SDS011;47868;51.326;6.550;2023-12-04T09:46:34;10.68;;;9.13;;
61915;SDS011;47868;51.326;6.550;2023-12-04T09:49:00;10.02;;;8.15;;
61915;SDS011;47868;51.326;6.550;2023-12-04T09:51:26;14.25;;;9.40;;
61915;SDS011;47868;51.326;6.550;2023-12-04T09:53:52;10.95;;;8.52;;
61915;SDS011;47868;51.326;6.550;2023-12-04T09:56:22;11.18;;;8.20;;
61915;SDS011;47868;51.326;6.550;2023-12-04T09:58:50;12.07;;;8.85;;
61915;SDS011;47868;51.326;6.550;2023-12-04T10:01:18;10.52;;;8.30;;
61915;SDS011;47868;51.326;6.550;2023-12-04T10:03:44;9.48;;;7.68;;
61915;SDS011;47868;51.326;6.550;2023-12-04T10:06:11;14.00;;;9.32;;
61915;SDS011;47868;51.326;6.550;2023-12-04T10:08:42;13.48;;;9.13;;
61915;SDS011;47868;51.326;6.550;2023-12-04T10:11:09;11.48;;;8.35;;
61915;SDS011;47868;51.326;6.550;2023-12-04T10:13:35;14.02;;;9.48;;
61915;SDS011;47868;51.326;6.550;2023-12-04T10:16:01;12.85;;;9.27;;
61915;SDS011;47868;51.326;6.550;2023-12-04T10:18:28;12.38;;;8.55;;
61915;SDS011;47868;51.326;6.550;2023-12-04T10:20:55;10.85;;;8.48;;
61915;SDS011;47868;51.326;6.550;2023-12-04T10:23:21;12.43;;;9.57;;
61915;SDS011;47868;51.326;6.550;2023-12-04T10:25:48;12.27;;;8.80;;
61915;SDS011;47868;51.326;6.550;2023-12-04T10:28:15;10.57;;;8.93;;
61915;SDS011;47868;51.326;6.550;2023-12-04T10:30:42;10.95;;;8.43;;
61915;SDS011;47868;51.326;6.550;2023-12-04T10:33:09;12.68;;;8.75;;
61915;SDS011;47868;51.326;6.550;2023-12-04T10:35:36;12.02;;;8.65;;
61915;SDS011;47868;51.326;6.550;2023-12-04T10:38:02;9.82;;;8.48;;
61915;SDS011;47868;51.326;6.550;2023-12-04T10:40:32;12.05;;;9.10;;
61915;SDS011;47868;51.326;6.550;2023-12-04T10:45:40;11.02;;;8.85;;
61915;SDS011;47868;51.326;6.550;2023-12-04T10:48:07;10.68;;;9.10;;
61915;SDS011;47868;51.326;6.550;2023-12-04T10:50:33;11.90;;;9.75;;
61915;SDS011;47868;51.326;6.550;2023-12-04T10:53:05;12.88;;;9.40;;
61915;SDS011;47868;51.326;6.550;2023-12-04T10:55:32;11.13;;;8.88;;
61915;SDS011;47868;51.326;6.550;2023-12-04T10:58:02;12.57;;;9.88;;
61915;SDS011;47868;51.326;6.550;2023-12-04T11:00:35;14.48;;;9.38;;
61915;SDS011;47868;51.326;6.550;2023-12-04T11:03:08;11.75;;;8.63;;
61915;SDS011;47868;51.326;6.550;2023-12-04T11:05:38;12.00;;;8.75;;
61915;SDS011;47868;51.326;6.550;2023-12-04T11:08:05;12.65;;;10.02;;
61915;SDS011;47868;51.326;6.550;2023-12-04T11:10:31;15.55;;;10.52;;
61915;SDS011;47868;51.326;6.550;2023-12-04T11:13:41;12.73;;;9.57;;
61915;SDS011;47868;51.326;6.550;2023-12-04T11:15:48;11.68;;;9.50;;
61915;SDS011;47868;51.326;6.550;2023-12-04T11:18:20;12.88;;;9.80;;
61915;SDS011;47868;51.326;6.550;2023-12-04T11:20:48;13.05;;;9.93;;
61915;SDS011;47868;51.326;6.550;2023-12-04T11:23:16;13.25;;;9.90;;
61915;SDS011;47868;51.326;6.550;2023-12-04T11:25:43;13.80;;;10.63;;
61915;SDS011;47868;51.326;6.550;2023-12-04T11:28:10;13.38;;;9.30;;
61915;SDS011;47868;51.326;6.550;2023-12-04T11:30:37;19.05;;;9.95;;
61915;SDS011;47868;51.326;6.550;2023-12-04T11:33:04;17.25;;;10.43;;
61915;SDS011;47868;51.326;6.550;2023-12-04T11:35:30;12.90;;;9.95;;
61915;SDS011;47868;51.326;6.550;2023-12-04T11:37:58;12.55;;;9.63;;
61915;SDS011;47868;51.326;6.550;2023-12-04T11:40:24;12.88;;;9.75;;
61915;SDS011;47868;51.326;6.550;2023-12-04T11:42:51;12.82;;;10.13;;
61915;SDS011;47868;51.326;6.550;2023-12-04T11:45:18;13.77;;;9.98;;
61915;SDS011;47868;51.326;6.550;2023-12-04T11:47:49;14.98;;;10.20;;
61915;SDS011;47868;51.326;6.550;2023-12-04T11:50:15;13.55;;;9.57;;
61915;SDS011;47868;51.326;6.550;2023-12-04T11:52:42;18.45;;;10.45;;
61915;SDS011;47868;51.326;6.550;2023-12-04T11:55:08;12.75;;;9.68;;
61915;SDS011;47868;51.326;6.550;2023-12-04T11:57:35;14.52;;;10.93;;
61915;SDS011;47868;51.326;6.550;2023-12-04T12:02:44;14.60;;;10.60;;
61915;SDS011;47868;51.326;6.550;2023-12-04T12:05:12;13.32;;;10.27;;
61915;SDS011;47868;51.326;6.550;2023-12-04T12:07:38;13.27;;;10.32;;
61915;SDS011;47868;51.326;6.550;2023-12-04T12:10:04;16.73;;;10.60;;
61915;SDS011;47868;51.326;6.550;2023-12-04T12:12:30;14.55;;;10.57;;
61915;SDS011;47868;51.326;6.550;2023-12-04T12:14:57;14.35;;;11.70;;
61915;SDS011;47868;51.326;6.550;2023-12-04T12:17:23;14.25;;;11.38;;
61915;SDS011;47868;51.326;6.550;2023-12-04T12:19:50;17.17;;;10.80;;
61915;SDS011;47868;51.326;6.550;2023-12-04T12:22:16;13.07;;;10.75;;
61915;SDS011;47868;51.326;6.550;2023-12-04T12:24:42;16.02;;;11.38;;
61915;SDS011;47868;51.326;6.550;2023-12-04T12:27:08;15.00;;;10.85;;
61915;SDS011;47868;51.326;6.550;2023-12-04T12:29:34;13.60;;;10.73;;
61915;SDS011;47868;51.326;6.550;2023-12-04T12:32:00;16.08;;;10.95;;
61915;SDS011;47868;51.326;6.550;2023-12-04T12:34:28;15.60;;;11.55;;
61915;SDS011;47868;51.326;6.550;2023-12-04T12:36:54;15.57;;;10.23;;
61915;SDS011;47868;51.326;6.550;2023-12-04T12:39:20;14.48;;;11.23;;
61915;SDS011;47868;51.326;6.550;2023-12-04T12:41:49;13.00;;;10.57;;
61915;SDS011;47868;51.326;6.550;2023-12-04T12:44:15;13.95;;;10.45;;
61915;SDS011;47868;51.326;6.550;2023-12-04T12:46:41;15.90;;;11.15;;
61915;SDS011;47868;51.326;6.550;2023-12-04T12:49:07;19.98;;;11.13;;
61915;SDS011;47868;51.326;6.550;2023-12-04T12:51:33;14.00;;;11.07;;
61915;SDS011;47868;51.326;6.550;2023-12-04T12:53:59;14.90;;;10.75;;
61915;SDS011;47868;51.326;6.550;2023-12-04T12:56:25;17.05;;;12.05;;
61915;SDS011;47868;51.326;6.550;2023-12-04T12:58:52;15.23;;;10.50;;
61915;SDS011;47868;51.326;6.550;2023-12-04T13:01:18;15.90;;;11.32;;
61915;SDS011;47868;51.326;6.550;2023-12-04T13:03:45;15.63;;;10.68;;
61915;SDS011;47868;51.326;6.550;2023-12-04T13:06:12;14.82;;;11.30;;
61915;SDS011;47868;51.326;6.550;2023-12-04T13:08:38;14.05;;;10.27;;
61915;SDS011;47868;51.326;6.550;2023-12-04T13:11:05;13.52;;;10.18;;
61915;SDS011;47868;51.326;6.550;2023-12-04T13:13:31;13.10;;;10.35;;
61915;SDS011;47868;51.326;6.550;2023-12-04T13:15:57;13.15;;;10.02;;
61915;SDS011;47868;51.326;6.550;2023-12-04T13:18:23;16.15;;;10.50;;
61915;SDS011;47868;51.326;6.550;2023-12-04T13:20:49;13.80;;;10.70;;
61915;SDS011;47868;51.326;6.550;2023-12-04T13:23:15;16.30;;;10.25;;
61915;SDS011;47868;51.326;6.550;2023-12-04T13:25:41;15.20;;;11.15;;
61915;SDS011;47868;51.326;6.550;2023-12-04T13:28:08;15.63;;;10.68;;
61915;SDS011;47868;51.326;6.550;2023-12-04T13:30:34;11.40;;;9.30;;
61915;SDS011;47868;51.326;6.550;2023-12-04T13:33:01;15.88;;;10.15;;
61915;SDS011;47868;51.326;6.550;2023-12-04T13:35:28;14.60;;;10.50;;
61915;SDS011;47868;51.326;6.550;2023-12-04T13:37:53;13.27;;;9.95;;
61915;SDS011;47868;51.326;6.550;2023-12-04T13:40:21;15.55;;;10.05;;
61915;SDS011;47868;51.326;6.550;2023-12-04T13:42:51;13.13;;;9.75;;
61915;SDS011;47868;51.326;6.550;2023-12-04T13:45:36;12.45;;;9.55;;
61915;SDS011;47868;51.326;6.550;2023-12-04T13:48:02;13.27;;;9.93;;
61915;SDS011;47868;51.326;6.550;2023-12-04T13:50:28;13.77;;;9.60;;
61915;SDS011;47868;51.326;6.550;2023-12-04T13:52:54;12.73;;;9.60;;
61915;SDS011;47868;51.326;6.550;2023-12-04T13:55:22;12.80;;;9.82;;
61915;SDS011;47868;51.326;6.550;2023-12-04T13:58:07;12.57;;;9.40;;
61915;SDS011;47868;51.326;6.550;2023-12-04T14:00:56;11.77;;;9.05;;
61915;SDS011;47868;51.326;6.550;2023-12-04T14:03:22;12.18;;;9.63;;
61915;SDS011;47868;51.326;6.550;2023-12-04T14:05:48;13.43;;;10.18;;
61915;SDS011;47868;51.326;6.550;2023-12-04T14:08:15;14.15;;;9.65;;
61915;SDS011;47868;51.326;6.550;2023-12-04T14:10:41;11.88;;;9.43;;
61915;SDS011;47868;51.326;6.550;2023-12-04T14:13:07;11.65;;;9.35;;
61915;SDS011;47868;51.326;6.550;2023-12-04T14:15:33;11.90;;;9.65;;
61915;SDS011;47868;51.326;6.550;2023-12-04T14:17:59;11.52;;;9.38;;
61915;SDS011;47868;51.326;6.550;2023-12-04T14:20:25;14.32;;;10.05;;
61915;SDS011;47868;51.326;6.550;2023-12-04T14:22:51;13.05;;;9.38;;
61915;SDS011;47868;51.326;6.550;2023-12-04T14:25:17;12.07;;;9.05;;
61915;SDS011;47868;51.326;6.550;2023-12-04T14:27:43;11.48;;;9.10;;